Time;durP1;ratioP1;P1;durP2;ratioP2;P2;SDS_P1;SDS_P2;PMS_P1;PMS_P2;Temp;Humidity;BMP_temperature;BMP_pressure;BME280_temperature;BME280_humidity;BME280_pressure;Samples;Min_cycle;Max_cycle;Signal;HPM_P1;HPM_P2
2023/06/12 00:00:56;;;;;;;;;;;19.60;87.80;;;;;;5048496;28;19944;-82
2023/06/12 00:03:26;;;;;;;;;;;19.60;88.10;;;;;;5045195;28;19908;-82
2023/06/12 00:05:59;;;;;;;;;;;19.50;88.50;;;;;;5046177;28;19915;-82
2023/06/12 00:08:28;;;;;;;;;;;19.50;88.80;;;;;;5045648;28;20553;-82
2023/06/12 00:10:54;;;;;;;;;;;19.50;89.30;;;;;;5047836;28;19984;-82
2023/06/12 00:13:20;;;;;;;;;;;19.50;89.00;;;;;;5045805;28;19990;-82
2023/06/12 00:15:45;;;;;;;;;;;19.50;89.00;;;;;;5040936;28;19989;-81
2023/06/12 00:18:12;;;;;;;;;;;19.50;89.10;;;;;;5058381;28;20282;-81
2023/06/12 00:20:37;;;;;;;;;;;19.40;89.10;;;;;;5048092;28;19919;-82
2023/06/12 00:23:03;;;;;;;;;;;19.40;89.30;;;;;;5055422;28;19912;-82
2023/06/12 00:25:28;;;;;;;;;;;19.30;89.50;;;;;;5045827;28;19920;-83
2023/06/12 00:27:54;;;;;;;;;;;19.30;89.70;;;;;;5045431;28;19924;-82
2023/06/12 00:30:20;;;;;;;;;;;19.30;89.80;;;;;;5053890;28;19997;-82
2023/06/12 00:32:46;;;;;;;;;;;19.20;90.20;;;;;;5046304;28;20299;-82
2023/06/12 00:35:11;;;;;;;;;;;19.10;90.40;;;;;;5056006;28;20027;-82
2023/06/12 00:37:41;;;;;;;;;;;19.10;90.40;;;;;;5056425;28;19912;-83
2023/06/12 00:40:07;;;;;;;;;;;19.20;90.60;;;;;;5047965;28;20424;-82
2023/06/12 00:42:33;;;;;;;;;;;19.20;90.20;;;;;;5055760;28;19919;-82
2023/06/12 00:44:59;;;;;;;;;;;19.20;90.20;;;;;;5051324;28;19913;-82
2023/06/12 00:47:26;;;;;;;;;;;19.10;90.30;;;;;;5044674;28;20469;-82
2023/06/12 00:49:52;;;;;;;;;;;19.20;90.20;;;;;;5060018;28;20432;-82
2023/06/12 00:52:18;;;;;;;;;;;19.10;90.30;;;;;;5048660;28;19912;-82
2023/06/12 00:54:44;;;;;;;;;;;19.10;90.40;;;;;;5057399;28;20496;-82
2023/06/12 00:57:11;;;;;;;;;;;19.10;90.40;;;;;;5050694;28;20475;-81
2023/06/12 00:59:37;;;;;;;;;;;19.00;90.50;;;;;;5051412;28;19920;-82
2023/06/12 01:02:03;;;;;;;;;;;18.90;90.70;;;;;;5051645;28;19912;-81
2023/06/12 01:04:30;;;;;;;;;;;18.80;91.00;;;;;;5058305;28;19912;-82
2023/06/12 01:07:01;;;;;;;;;;;18.80;91.20;;;;;;5059933;28;20322;-82
2023/06/12 01:09:30;;;;;;;;;;;18.70;91.30;;;;;;5051334;28;20459;-81
2023/06/12 01:11:56;;;;;;;;;;;18.80;91.30;;;;;;5054086;28;20039;-81
2023/06/12 01:14:22;;;;;;;;;;;18.80;91.20;;;;;;5059601;28;20576;-81
2023/06/12 01:16:47;;;;;;;;;;;18.70;91.20;;;;;;5055736;28;19912;-81
2023/06/12 01:19:15;;;;;;;;;;;18.60;91.30;;;;;;5049119;28;20379;-82
2023/06/12 01:21:44;;;;;;;;;;;18.60;91.40;;;;;;5049033;28;19912;-82
2023/06/12 01:24:18;;;;;;;;;;;18.60;91.40;;;;;;5053057;28;19927;-83
2023/06/12 01:26:52;;;;;;;;;;;18.60;91.30;;;;;;5049487;28;19913;-82
2023/06/12 01:29:17;;;;;;;;;;;18.60;91.30;;;;;;5053589;28;19916;-83
2023/06/12 01:31:43;;;;;;;;;;;18.60;91.40;;;;;;5057418;28;19918;-83
2023/06/12 01:34:10;;;;;;;;;;;18.60;91.30;;;;;;5056968;28;20003;-82
2023/06/12 01:36:38;;;;;;;;;;;18.60;91.40;;;;;;5050721;28;20010;-82
2023/06/12 01:39:05;;;;;;;;;;;18.50;91.60;;;;;;5049734;28;19938;-83
2023/06/12 01:41:31;;;;;;;;;;;18.40;91.80;;;;;;5051138;28;20322;-83
2023/06/12 01:43:57;;;;;;;;;;;18.40;91.70;;;;;;5052885;28;20501;-82
2023/06/12 01:46:22;;;;;;;;;;;18.40;91.90;;;;;;5057990;28;19913;-82
2023/06/12 01:48:48;;;;;;;;;;;18.40;91.90;;;;;;5052992;28;19959;-82
2023/06/12 01:51:14;;;;;;;;;;;18.30;92.00;;;;;;5059847;28;19927;-81
2023/06/12 01:53:39;;;;;;;;;;;18.30;92.10;;;;;;5054112;28;19909;-81
2023/06/12 01:56:06;;;;;;;;;;;18.20;92.10;;;;;;5062135;28;19915;-82
2023/06/12 01:58:31;;;;;;;;;;;18.20;92.20;;;;;;5058935;28;19908;-81
2023/06/12 02:00:57;;;;;;;;;;;18.20;92.30;;;;;;5045886;28;19909;-83
2023/06/12 02:03:23;;;;;;;;;;;18.20;92.20;;;;;;5043173;28;19937;-81
2023/06/12 02:05:49;;;;;;;;;;;18.20;92.20;;;;;;5043459;28;20688;-83
2023/06/12 02:08:14;;;;;;;;;;;18.20;92.10;;;;;;5054606;28;19912;-80
2023/06/12 02:10:40;;;;;;;;;;;18.20;92.10;;;;;;5055184;28;19968;-80
2023/06/12 02:13:05;;;;;;;;;;;18.20;92.20;;;;;;5060643;28;19956;-81
2023/06/12 02:15:31;;;;;;;;;;;18.20;92.30;;;;;;5056355;28;20022;-80
2023/06/12 02:17:56;;;;;;;;;;;18.20;92.60;;;;;;5061737;28;19916;-80
2023/06/12 02:20:22;;;;;;;;;;;18.20;92.40;;;;;;5058910;28;19926;-81
2023/06/12 02:22:48;;;;;;;;;;;18.10;92.40;;;;;;5061597;28;19982;-80
2023/06/12 02:25:13;;;;;;;;;;;18.00;92.60;;;;;;5058004;28;19927;-82
2023/06/12 02:27:39;;;;;;;;;;;18.00;92.70;;;;;;5060627;28;19912;-83
2023/06/12 02:30:05;;;;;;;;;;;17.90;93.00;;;;;;5061765;28;20242;-82
2023/06/12 02:32:33;;;;;;;;;;;17.90;93.00;;;;;;5055697;28;19909;-82
2023/06/12 02:35:00;;;;;;;;;;;17.90;93.20;;;;;;5048207;28;19913;-82
2023/06/12 02:37:27;;;;;;;;;;;17.80;93.30;;;;;;5059304;28;20720;-82
2023/06/12 02:39:53;;;;;;;;;;;17.80;93.30;;;;;;5065661;28;20907;-81
2023/06/12 02:42:18;;;;;;;;;;;17.80;93.40;;;;;;5062240;28;19912;-81
2023/06/12 02:44:45;;;;;;;;;;;17.80;93.20;;;;;;5059221;28;20427;-81
2023/06/12 02:47:10;;;;;;;;;;;17.80;93.20;;;;;;5059579;28;19912;-81
2023/06/12 02:49:38;;;;;;;;;;;17.80;93.30;;;;;;5064291;28;19967;-82
2023/06/12 02:52:04;;;;;;;;;;;17.70;93.30;;;;;;5064682;28;20007;-83
2023/06/12 02:54:29;;;;;;;;;;;17.70;93.40;;;;;;5053843;28;19913;-82
2023/06/12 02:56:55;;;;;;;;;;;17.70;93.40;;;;;;5060800;28;19912;-82
2023/06/12 02:59:22;;;;;;;;;;;17.70;93.50;;;;;;5061804;28;19908;-82
2023/06/12 03:01:47;;;;;;;;;;;17.60;93.80;;;;;;5046482;28;19908;-83
2023/06/12 03:04:19;;;;;;;;;;;17.50;93.80;;;;;;5050532;28;20682;-82
2023/06/12 03:06:45;;;;;;;;;;;17.40;94.20;;;;;;5055064;28;19966;-82
2023/06/12 03:09:11;;;;;;;;;;;17.30;94.30;;;;;;5048600;28;19919;-82
2023/06/12 03:11:36;;;;;;;;;;;17.40;94.40;;;;;;5049506;28;19915;-82
2023/06/12 03:14:03;;;;;;;;;;;17.40;94.40;;;;;;5049524;28;19908;-82
2023/06/12 03:16:30;;;;;;;;;;;17.40;94.40;;;;;;5048499;28;20297;-82
2023/06/12 03:18:56;;;;;;;;;;;17.40;94.50;;;;;;5055221;28;19917;-81
2023/06/12 03:21:22;;;;;;;;;;;17.40;94.50;;;;;;5048323;28;20421;-81
2023/06/12 03:23:47;;;;;;;;;;;17.30;94.60;;;;;;5049332;28;20011;-81
2023/06/12 03:26:13;;;;;;;;;;;17.40;94.50;;;;;;5055359;28;19920;-82
2023/06/12 03:28:38;;;;;;;;;;;17.40;94.40;;;;;;5053258;28;20027;-82
2023/06/12 03:31:04;;;;;;;;;;;17.30;94.60;;;;;;5046855;28;20031;-82
2023/06/12 03:33:29;;;;;;;;;;;17.30;94.60;;;;;;5049134;28;19916;-82
2023/06/12 03:35:55;;;;;;;;;;;17.10;94.90;;;;;;5057126;28;19916;-83
2023/06/12 03:38:20;;;;;;;;;;;17.20;94.90;;;;;;5051851;28;20383;-82
2023/06/12 03:40:46;;;;;;;;;;;17.30;94.90;;;;;;5056152;28;19923;-82
2023/06/12 03:43:11;;;;;;;;;;;17.20;95.20;;;;;;5049548;28;19919;-81
2023/06/12 03:45:37;;;;;;;;;;;17.10;95.30;;;;;;5047314;28;20560;-82
2023/06/12 03:48:03;;;;;;;;;;;17.20;95.10;;;;;;5053724;28;19912;-82
2023/06/12 03:50:29;;;;;;;;;;;17.30;94.90;;;;;;5058060;28;19920;-82
2023/06/12 03:52:54;;;;;;;;;;;17.20;94.90;;;;;;5050246;28;20597;-80
2023/06/12 03:55:20;;;;;;;;;;;17.10;95.20;;;;;;5056761;28;19934;-81
2023/06/12 03:57:46;;;;;;;;;;;17.10;95.40;;;;;;5054968;28;19991;-80
2023/06/12 04:00:12;;;;;;;;;;;17.10;95.20;;;;;;5058331;28;19919;-80
2023/06/12 04:02:38;;;;;;;;;;;17.10;95.30;;;;;;5041460;28;19912;-81
2023/06/12 04:05:04;;;;;;;;;;;17.10;95.40;;;;;;5045529;28;19947;-81
2023/06/12 04:07:29;;;;;;;;;;;17.10;95.30;;;;;;5045473;28;20477;-82
2023/06/12 04:09:55;;;;;;;;;;;17.20;95.10;;;;;;5045107;28;19929;-80
2023/06/12 04:12:21;;;;;;;;;;;17.20;94.90;;;;;;5047526;28;19916;-81
2023/06/12 04:14:46;;;;;;;;;;;17.30;94.40;;;;;;5046897;28;19955;-80
2023/06/12 04:17:12;;;;;;;;;;;17.40;94.20;;;;;;5047023;28;19912;-80
2023/06/12 04:19:38;;;;;;;;;;;17.50;94.10;;;;;;5051656;28;20366;-80
2023/06/12 04:22:05;;;;;;;;;;;17.70;93.80;;;;;;5050313;28;19970;-80
2023/06/12 04:24:32;;;;;;;;;;;18.20;92.40;;;;;;5047400;28;19921;-77
2023/06/12 04:27:01;;;;;;;;;;;17.70;93.00;;;;;;5054349;28;19919;-78
2023/06/12 04:29:28;;;;;;;;;;;17.70;93.10;;;;;;5049227;28;19990;-79
2023/06/12 04:31:55;;;;;;;;;;;18.00;92.90;;;;;;5052836;28;19931;-79
2023/06/12 04:34:21;;;;;;;;;;;18.70;91.40;;;;;;5045346;28;19920;-78
2023/06/12 04:36:47;;;;;;;;;;;19.40;90.00;;;;;;5050668;28;19912;-79
2023/06/12 04:39:13;;;;;;;;;;;19.60;88.50;;;;;;5054165;28;20639;-78
2023/06/12 04:41:40;;;;;;;;;;;19.00;89.60;;;;;;5038497;28;20576;-81
2023/06/12 04:44:06;;;;;;;;;;;19.10;90.10;;;;;;5053184;28;19917;-79
2023/06/12 04:46:32;;;;;;;;;;;19.80;87.80;;;;;;5061971;28;19962;-77
2023/06/12 04:48:59;;;;;;;;;;;20.00;86.40;;;;;;5056534;28;19928;-81
2023/06/12 04:51:24;;;;;;;;;;;20.20;85.20;;;;;;5060672;28;20011;-78
2023/06/12 04:53:53;;;;;;;;;;;20.10;85.30;;;;;;5063605;28;20839;-80
2023/06/12 04:56:21;;;;;;;;;;;20.60;83.50;;;;;;5063262;28;19908;-79
2023/06/12 04:58:47;;;;;;;;;;;20.90;82.20;;;;;;5059866;28;20767;-78
2023/06/12 05:01:14;;;;;;;;;;;21.00;80.60;;;;;;5053962;28;19912;-80
2023/06/12 05:03:40;;;;;;;;;;;21.80;78.50;;;;;;5051218;28;19916;-80
2023/06/12 05:06:06;;;;;;;;;;;21.80;78.10;;;;;;5055099;28;19913;-79
2023/06/12 05:08:32;;;;;;;;;;;21.80;76.80;;;;;;5056604;28;19922;-80
2023/06/12 05:10:58;;;;;;;;;;;22.30;76.10;;;;;;5059757;28;20350;-83
2023/06/12 05:13:23;;;;;;;;;;;21.80;76.70;;;;;;5059457;28;19912;-81
2023/06/12 05:15:49;;;;;;;;;;;21.30;78.90;;;;;;5057863;28;19958;-82
2023/06/12 05:18:14;;;;;;;;;;;20.70;80.10;;;;;;5057740;28;19916;-80
2023/06/12 05:20:40;;;;;;;;;;;19.60;84.10;;;;;;5060887;28;19912;-82
2023/06/12 05:23:05;;;;;;;;;;;19.30;85.40;;;;;;5059572;28;20381;-79
2023/06/12 05:25:31;;;;;;;;;;;19.10;86.80;;;;;;5053746;28;19923;-79
2023/06/12 05:27:57;;;;;;;;;;;19.30;86.30;;;;;;5055856;28;19920;-79
2023/06/12 05:30:23;;;;;;;;;;;20.00;83.90;;;;;;5039507;28;19920;-78
2023/06/12 05:32:49;;;;;;;;;;;21.40;79.70;;;;;;5055891;28;19923;-78
2023/06/12 05:35:14;;;;;;;;;;;22.60;75.20;;;;;;5050487;28;20643;-78
2023/06/12 05:37:40;;;;;;;;;;;23.50;71.50;;;;;;5053851;28;19917;-78
2023/06/12 05:40:08;;;;;;;;;;;24.10;70.40;;;;;;5053713;28;21380;-77
2023/06/12 05:42:37;;;;;;;;;;;25.60;65.80;;;;;;5035957;28;20381;-79
2023/06/12 05:45:03;;;;;;;;;;;25.20;65.90;;;;;;5058340;28;19908;-78
2023/06/12 05:47:29;;;;;;;;;;;24.90;66.40;;;;;;5062375;28;19909;-78
2023/06/12 05:49:55;;;;;;;;;;;24.80;66.20;;;;;;5061933;28;19920;-78
2023/06/12 05:52:20;;;;;;;;;;;24.80;66.20;;;;;;5061112;28;19954;-78
2023/06/12 05:54:46;;;;;;;;;;;25.50;64.80;;;;;;5035777;28;20552;-79
2023/06/12 05:57:13;;;;;;;;;;;25.70;65.00;;;;;;5043778;28;19916;-80
2023/06/12 05:59:38;;;;;;;;;;;26.00;63.00;;;;;;5062583;28;19954;-79
2023/06/12 06:02:04;;;;;;;;;;;25.60;63.90;;;;;;5061264;28;19916;-79
2023/06/12 06:04:30;;;;;;;;;;;26.00;63.70;;;;;;5062570;28;19938;-80
2023/06/12 06:06:55;;;;;;;;;;;26.90;61.90;;;;;;5062410;28;20580;-80
2023/06/12 06:09:21;;;;;;;;;;;26.80;61.60;;;;;;5062330;28;19987;-80
2023/06/12 06:11:46;;;;;;;;;;;26.70;61.10;;;;;;5061949;28;19922;-80
2023/06/12 06:14:12;;;;;;;;;;;26.60;60.80;;;;;;5063796;28;19912;-80
2023/06/12 06:16:37;;;;;;;;;;;27.30;60.30;;;;;;5061152;28;19922;-78
2023/06/12 06:19:03;;;;;;;;;;;28.60;58.60;;;;;;5031572;28;19919;-80
2023/06/12 06:21:30;;;;;;;;;;;28.10;57.90;;;;;;5061543;28;20430;-78
2023/06/12 06:23:56;;;;;;;;;;;28.60;56.70;;;;;;5060960;28;19970;-81
2023/06/12 06:26:21;;;;;;;;;;;28.00;57.20;;;;;;5064998;28;19920;-80
2023/06/12 06:28:47;;;;;;;;;;;28.60;57.90;;;;;;5047462;28;19931;-80
2023/06/12 06:31:13;;;;;;;;;;;28.50;55.60;;;;;;5066857;28;19955;-80
2023/06/12 06:33:38;;;;;;;;;;;28.70;55.60;;;;;;5066457;28;19908;-81
2023/06/12 06:36:04;;;;;;;;;;;30.00;54.60;;;;;;5066541;28;19997;-80
2023/06/12 06:38:30;;;;;;;;;;;29.50;53.80;;;;;;5066235;28;20086;-81
2023/06/12 06:40:55;;;;;;;;;;;29.00;54.00;;;;;;5066330;28;20006;-80
2023/06/12 06:43:21;;;;;;;;;;;29.80;53.30;;;;;;5066098;28;19908;-80
2023/06/12 06:45:47;;;;;;;;;;;30.60;53.20;;;;;;5066350;28;20022;-81
2023/06/12 06:48:12;;;;;;;;;;;30.20;53.60;;;;;;5066039;28;19909;-80
2023/06/12 06:50:39;;;;;;;;;;;30.20;52.80;;;;;;5065572;28;19927;-81
2023/06/12 06:53:04;;;;;;;;;;;30.70;52.00;;;;;;5065782;28;19909;-81
2023/06/12 06:55:30;;;;;;;;;;;31.20;50.60;;;;;;5066191;28;19974;-80
2023/06/12 06:57:56;;;;;;;;;;;31.10;49.70;;;;;;5065204;28;19908;-81
2023/06/12 07:00:22;;;;;;;;;;;31.70;49.60;;;;;;5065660;28;19908;-80
2023/06/12 07:02:48;;;;;;;;;;;32.00;48.00;;;;;;5064115;28;20334;-80
2023/06/12 07:05:16;;;;;;;;;;;32.50;48.10;;;;;;5065480;28;19912;-80
2023/06/12 07:07:46;;;;;;;;;;;32.40;48.10;;;;;;5065112;28;19918;-81
2023/06/12 07:10:12;;;;;;;;;;;32.40;47.80;;;;;;5060077;28;19921;-81
2023/06/12 07:12:38;;;;;;;;;;;32.80;47.80;;;;;;5065313;28;20367;-81
2023/06/12 07:15:04;;;;;;;;;;;33.20;48.90;;;;;;5063345;28;20103;-80
2023/06/12 07:17:30;;;;;;;;;;;33.00;47.20;;;;;;5065739;28;20094;-81
2023/06/12 07:19:55;;;;;;;;;;;33.20;47.50;;;;;;5065518;28;20454;-81
2023/06/12 07:22:21;;;;;;;;;;;33.60;47.60;;;;;;5064904;28;20484;-81
2023/06/12 07:24:46;;;;;;;;;;;32.60;48.20;;;;;;5065198;28;19920;-81
2023/06/12 07:27:12;;;;;;;;;;;32.90;47.60;;;;;;5077703;28;19935;-81
2023/06/12 07:29:37;;;;;;;;;;;33.70;47.10;;;;;;5065120;28;19923;-81
2023/06/12 07:32:03;;;;;;;;;;;33.10;45.80;;;;;;5046308;28;19908;-81
2023/06/12 07:34:29;;;;;;;;;;;33.70;45.90;;;;;;5064995;28;19942;-81
2023/06/12 07:36:54;;;;;;;;;;;34.50;45.90;;;;;;5064744;28;19912;-80
2023/06/12 07:39:20;;;;;;;;;;;34.60;45.40;;;;;;5065488;28;20295;-81
2023/06/12 07:41:46;;;;;;;;;;;35.00;44.70;;;;;;5064808;28;19966;-81
2023/06/12 07:44:11;;;;;;;;;;;33.90;46.10;;;;;;5064740;28;19909;-81
2023/06/12 07:46:37;;;;;;;;;;;34.00;46.00;;;;;;5064830;28;19915;-81
2023/06/12 07:49:02;;;;;;;;;;;34.10;46.60;;;;;;5064339;28;19909;-81
2023/06/12 07:51:28;;;;;;;;;;;35.90;44.40;;;;;;5042955;28;19916;-81
2023/06/12 07:53:54;;;;;;;;;;;35.10;45.00;;;;;;5057735;28;19914;-81
2023/06/12 07:56:19;;;;;;;;;;;35.10;43.10;;;;;;5060128;28;20775;-81
2023/06/12 07:58:47;;;;;;;;;;;35.30;43.60;;;;;;5058689;28;20409;-81
2023/06/12 08:01:13;;;;;;;;;;;35.50;43.80;;;;;;5064522;28;20396;-81
2023/06/12 08:03:39;;;;;;;;;;;35.10;44.00;;;;;;5064388;28;19908;-81
2023/06/12 08:06:11;;;;;;;;;;;35.10;43.70;;;;;;5063942;28;19981;-81
2023/06/12 08:08:40;;;;;;;;;;;35.80;42.30;;;;;;5064026;28;19912;-81
2023/06/12 08:11:06;;;;;;;;;;;35.70;43.00;;;;;;5063899;28;19917;-81
2023/06/12 08:13:32;;;;;;;;;;;36.30;42.30;;;;;;5064312;28;20656;-81
2023/06/12 08:15:58;;;;;;;;;;;35.70;41.50;;;;;;5064060;28;20434;-81
2023/06/12 08:18:23;;;;;;;;;;;35.70;42.30;;;;;;5063756;28;20268;-81
2023/06/12 08:20:50;;;;;;;;;;;34.80;43.10;;;;;;5063607;28;20440;-81
2023/06/12 08:23:16;;;;;;;;;;;36.10;42.20;;;;;;5045745;28;19912;-81
2023/06/12 08:25:43;;;;;;;;;;;36.40;42.60;;;;;;5059840;28;19971;-81
2023/06/12 08:28:08;;;;;;;;;;;37.10;40.80;;;;;;5054702;28;19915;-81
2023/06/12 08:30:34;;;;;;;;;;;37.80;40.40;;;;;;5063330;28;19916;-81
2023/06/12 08:33:00;;;;;;;;;;;38.80;40.20;;;;;;5063851;28;19912;-81
2023/06/12 08:35:25;;;;;;;;;;;39.00;39.00;;;;;;5063864;28;19920;-81
2023/06/12 08:37:51;;;;;;;;;;;38.20;39.00;;;;;;5063652;28;19915;-81
2023/06/12 08:40:17;;;;;;;;;;;37.70;40.20;;;;;;5063170;28;19908;-81
2023/06/12 08:42:49;;;;;;;;;;;38.00;40.00;;;;;;5063146;28;19908;-82
2023/06/12 08:45:16;;;;;;;;;;;37.90;38.60;;;;;;5063062;28;20446;-81
2023/06/12 08:47:42;;;;;;;;;;;39.00;39.20;;;;;;5063293;28;19908;-81
2023/06/12 08:50:08;;;;;;;;;;;40.30;38.40;;;;;;5063335;28;20699;-81
2023/06/12 08:52:33;;;;;;;;;;;41.30;37.60;;;;;;5063311;28;20011;-81
2023/06/12 08:55:00;;;;;;;;;;;40.80;37.20;;;;;;5045346;28;19908;-81
2023/06/12 08:57:27;;;;;;;;;;;42.00;36.50;;;;;;5049488;28;20006;-81
2023/06/12 08:59:53;;;;;;;;;;;40.80;36.20;;;;;;5063646;28;19923;-81
2023/06/12 09:02:18;;;;;;;;;;;40.50;37.10;;;;;;5063304;28;19908;-81
2023/06/12 09:04:48;;;;;;;;;;;40.30;36.60;;;;;;5059303;28;19916;-81
2023/06/12 09:07:17;;;;;;;;;;;40.40;36.40;;;;;;5062250;28;19959;-81
2023/06/12 09:09:45;;;;;;;;;;;40.20;36.50;;;;;;5063589;28;19920;-81
2023/06/12 09:12:12;;;;;;;;;;;41.00;36.60;;;;;;5063059;28;19912;-81
2023/06/12 09:14:39;;;;;;;;;;;40.50;36.90;;;;;;5063320;28;19978;-81
2023/06/12 09:17:06;;;;;;;;;;;40.40;36.00;;;;;;5056319;28;19915;-81
2023/06/12 09:19:39;;;;;;;;;;;40.30;35.60;;;;;;5057092;28;19904;-81
2023/06/12 09:22:05;;;;;;;;;;;40.20;35.70;;;;;;5062785;28;19908;-81
2023/06/12 09:24:31;;;;;;;;;;;41.00;35.00;;;;;;5063636;28;19930;-81
2023/06/12 09:26:56;;;;;;;;;;;41.40;34.90;;;;;;5050185;28;20631;-81
2023/06/12 09:29:32;;;;;;;;;;;42.10;34.60;;;;;;5062139;28;20062;-81
2023/06/12 09:32:01;;;;;;;;;;;42.60;34.00;;;;;;5063100;28;19909;-82
2023/06/12 09:34:27;;;;;;;;;;;43.20;33.60;;;;;;5045074;28;19905;-82
2023/06/12 09:36:53;;;;;;;;;;;41.90;33.80;;;;;;5062949;28;20430;-81
2023/06/12 09:39:26;;;;;;;;;;;40.00;34.60;;;;;;5063073;28;19908;-81
2023/06/12 09:41:52;;;;;;;;;;;40.70;35.60;;;;;;5062470;28;19946;-81
2023/06/12 09:44:19;;;;;;;;;;;41.20;36.20;;;;;;5062489;28;19917;-81
2023/06/12 09:46:45;;;;;;;;;;;39.70;35.70;;;;;;5061915;28;19990;-81
2023/06/12 09:49:12;;;;;;;;;;;39.80;35.30;;;;;;5062616;28;19951;-81
2023/06/12 09:51:38;;;;;;;;;;;40.00;35.80;;;;;;5059752;28;19923;-81
2023/06/12 09:54:06;;;;;;;;;;;39.80;36.20;;;;;;5062143;28;19983;-81
2023/06/12 09:56:32;;;;;;;;;;;40.00;35.60;;;;;;5062127;28;20738;-81
2023/06/12 09:58:58;;;;;;;;;;;39.00;36.20;;;;;;5062330;28;19908;-81
2023/06/12 10:01:26;;;;;;;;;;;38.50;36.30;;;;;;5062344;28;19909;-81
2023/06/12 10:03:56;;;;;;;;;;;39.50;36.50;;;;;;5062475;28;19908;-81
2023/06/12 10:06:22;;;;;;;;;;;39.40;37.00;;;;;;5062008;28;19919;-81
2023/06/12 10:08:50;;;;;;;;;;;40.50;35.60;;;;;;5062222;28;19912;-81
2023/06/12 10:11:16;;;;;;;;;;;41.00;35.20;;;;;;5062186;28;19926;-81
2023/06/12 10:13:42;;;;;;;;;;;39.60;37.00;;;;;;5062516;28;19908;-81
2023/06/12 10:16:07;;;;;;;;;;;39.70;35.90;;;;;;5054967;28;19912;-81
2023/06/12 10:18:33;;;;;;;;;;;40.40;34.80;;;;;;5055426;28;19935;-81
2023/06/12 10:21:00;;;;;;;;;;;39.70;36.60;;;;;;5061968;28;19915;-81
2023/06/12 10:23:25;;;;;;;;;;;39.50;35.70;;;;;;5043850;28;19962;-80
2023/06/12 10:25:52;;;;;;;;;;;39.00;36.10;;;;;;5056496;28;19920;-81
2023/06/12 10:28:18;;;;;;;;;;;39.10;36.40;;;;;;5054211;28;19912;-81
2023/06/12 10:31:02;;;;;;;;;;;39.20;35.60;;;;;;5062519;28;20686;-81
2023/06/12 10:33:27;;;;;;;;;;;37.90;36.80;;;;;;5060292;28;19951;-81
2023/06/12 10:35:53;;;;;;;;;;;37.70;37.80;;;;;;5062050;28;20838;-81
2023/06/12 10:38:20;;;;;;;;;;;38.40;37.60;;;;;;5061584;28;20374;-81
2023/06/12 10:40:49;;;;;;;;;;;39.20;36.70;;;;;;5061762;28;19951;-81
2023/06/12 10:43:20;;;;;;;;;;;37.30;36.90;;;;;;5062276;28;19908;-81
2023/06/12 10:45:50;;;;;;;;;;;36.50;39.50;;;;;;5062228;28;19914;-80
2023/06/12 10:48:17;;;;;;;;;;;35.20;39.70;;;;;;5061825;28;20303;-81
2023/06/12 10:50:44;;;;;;;;;;;34.80;40.40;;;;;;5061838;28;20461;-81
2023/06/12 10:53:14;;;;;;;;;;;34.30;41.50;;;;;;5062225;28;19939;-81
2023/06/12 10:55:40;;;;;;;;;;;34.30;43.60;;;;;;5062038;28;19931;-81
2023/06/12 10:58:07;;;;;;;;;;;33.50;43.10;;;;;;5065336;28;19927;-81
2023/06/12 11:00:33;;;;;;;;;;;33.40;45.70;;;;;;5065796;28;19958;-81
2023/06/12 11:03:00;;;;;;;;;;;33.80;44.10;;;;;;5065295;28;19908;-81
2023/06/12 11:05:26;;;;;;;;;;;34.60;41.80;;;;;;5065098;28;19912;-81
2023/06/12 11:07:53;;;;;;;;;;;34.50;43.30;;;;;;5064704;28;19912;-81
2023/06/12 11:10:19;;;;;;;;;;;33.80;42.50;;;;;;5065117;28;19955;-80
2023/06/12 11:12:53;;;;;;;;;;;33.10;43.20;;;;;;5065243;28;19962;-81
2023/06/12 11:15:20;;;;;;;;;;;33.70;45.60;;;;;;5046404;28;20023;-81
2023/06/12 11:17:45;;;;;;;;;;;34.00;43.30;;;;;;5065161;28;19939;-81
2023/06/12 11:20:12;;;;;;;;;;;33.60;43.70;;;;;;5065027;28;19908;-81
2023/06/12 11:22:37;;;;;;;;;;;33.00;44.40;;;;;;5064908;28;19962;-80
2023/06/12 11:25:04;;;;;;;;;;;32.90;45.40;;;;;;5065087;28;19920;-81
2023/06/12 11:27:33;;;;;;;;;;;33.00;49.20;;;;;;5051431;28;19916;-81
2023/06/12 11:30:07;;;;;;;;;;;33.30;49.30;;;;;;5065163;28;19926;-80
2023/06/12 11:32:33;;;;;;;;;;;33.70;49.40;;;;;;5065192;28;19908;-81
2023/06/12 11:35:03;;;;;;;;;;;34.20;50.10;;;;;;5065003;28;19954;-81
2023/06/12 11:37:29;;;;;;;;;;;34.30;49.00;;;;;;5064778;28;19919;-81
2023/06/12 11:40:09;;;;;;;;;;;34.30;48.10;;;;;;5064888;28;20378;-81
2023/06/12 11:42:44;;;;;;;;;;;34.20;47.20;;;;;;5045627;28;19908;-81
2023/06/12 11:45:11;;;;;;;;;;;34.00;48.00;;;;;;5060280;28;19995;-81
2023/06/12 11:47:40;;;;;;;;;;;34.00;46.30;;;;;;5065114;28;20417;-81
2023/06/12 11:50:07;;;;;;;;;;;33.80;46.40;;;;;;5064729;28;19920;-81
2023/06/12 11:52:34;;;;;;;;;;;34.10;45.50;;;;;;5061315;28;19908;-81
2023/06/12 11:55:00;;;;;;;;;;;34.00;47.00;;;;;;5061322;28;20354;-81
2023/06/12 11:57:26;;;;;;;;;;;33.80;48.50;;;;;;5064207;28;19913;-81
2023/06/12 11:59:58;;;;;;;;;;;33.80;46.80;;;;;;5064725;28;19909;-81
2023/06/12 12:02:33;;;;;;;;;;;33.70;45.60;;;;;;5051841;28;20462;-81
2023/06/12 12:05:04;;;;;;;;;;;33.30;45.80;;;;;;5062817;28;20342;-81
2023/06/12 12:07:30;;;;;;;;;;;33.40;46.80;;;;;;5063638;28;19950;-81
2023/06/12 12:10:10;;;;;;;;;;;33.50;46.10;;;;;;5063805;28;19932;-81
2023/06/12 12:12:46;;;;;;;;;;;33.10;45.50;;;;;;5063208;28;20569;-81
2023/06/12 12:15:12;;;;;;;;;;;33.00;47.40;;;;;;5064236;28;19908;-81
2023/06/12 12:17:38;;;;;;;;;;;32.10;50.50;;;;;;5053383;28;20315;-81
2023/06/12 12:20:06;;;;;;;;;;;32.20;50.70;;;;;;5061645;28;19909;-81
2023/06/12 12:22:31;;;;;;;;;;;32.40;52.40;;;;;;5063962;28;19970;-81
2023/06/12 12:24:57;;;;;;;;;;;32.40;53.80;;;;;;5063948;28;20743;-81
2023/06/12 12:27:23;;;;;;;;;;;33.00;52.10;;;;;;5050271;28;19951;-81
2023/06/12 12:29:48;;;;;;;;;;;32.80;49.10;;;;;;5064075;28;20707;-82
2023/06/12 12:32:14;;;;;;;;;;;32.50;49.70;;;;;;5063845;28;19908;-81
2023/06/12 12:34:39;;;;;;;;;;;32.90;50.00;;;;;;5063625;28;19908;-81
2023/06/12 12:37:05;;;;;;;;;;;32.80;51.10;;;;;;5063366;28;19915;-81
2023/06/12 12:39:30;;;;;;;;;;;32.80;49.90;;;;;;5063668;28;19908;-81
2023/06/12 12:41:56;;;;;;;;;;;32.70;51.00;;;;;;5063490;28;20359;-81
2023/06/12 12:44:21;;;;;;;;;;;32.70;50.30;;;;;;5063315;28;19978;-82
2023/06/12 12:46:47;;;;;;;;;;;32.60;47.50;;;;;;5063180;28;19908;-81
2023/06/12 12:49:13;;;;;;;;;;;32.60;49.00;;;;;;5063604;28;19915;-81
2023/06/12 12:51:39;;;;;;;;;;;32.20;49.90;;;;;;5060120;28;19941;-81
2023/06/12 12:54:05;;;;;;;;;;;31.00;52.60;;;;;;5063442;28;19908;-81
2023/06/12 12:56:31;;;;;;;;;;;30.50;52.40;;;;;;5063135;28;19923;-81
2023/06/12 12:58:56;;;;;;;;;;;30.40;54.00;;;;;;5062966;28;19951;-80
2023/06/12 13:01:22;;;;;;;;;;;29.70;54.40;;;;;;5062873;28;20514;-80
2023/06/12 13:03:52;;;;;;;;;;;29.40;55.30;;;;;;5063559;28;20449;-81
2023/06/12 13:06:19;;;;;;;;;;;28.90;55.50;;;;;;5063156;28;19912;-80
2023/06/12 13:08:46;;;;;;;;;;;29.00;55.10;;;;;;5045214;28;20697;-80
2023/06/12 13:11:11;;;;;;;;;;;29.00;55.80;;;;;;5062900;28;19916;-80
2023/06/12 13:13:38;;;;;;;;;;;28.60;56.70;;;;;;5055293;28;19915;-80
2023/06/12 13:16:05;;;;;;;;;;;28.30;57.70;;;;;;5058749;28;19966;-81
2023/06/12 13:18:31;;;;;;;;;;;28.50;58.20;;;;;;5058616;28;19919;-80
2023/06/12 13:20:56;;;;;;;;;;;28.30;58.70;;;;;;5061007;28;19908;-81
2023/06/12 13:23:22;;;;;;;;;;;28.00;58.20;;;;;;5062731;28;19909;-80
2023/06/12 13:25:47;;;;;;;;;;;27.60;58.40;;;;;;5058092;28;19921;-80
2023/06/12 13:28:13;;;;;;;;;;;27.60;59.00;;;;;;5035601;28;20486;-80
2023/06/12 13:30:38;;;;;;;;;;;27.70;59.10;;;;;;5062460;28;19971;-80
2023/06/12 13:33:04;;;;;;;;;;;27.50;65.20;;;;;;5062465;28;19916;-80
2023/06/12 13:35:29;;;;;;;;;;;25.60;92.50;;;;;;5061554;28;19912;-80
2023/06/12 13:37:55;;;;;;;;;;;24.10;99.90;;;;;;5062566;28;19917;-80
2023/06/12 13:40:23;;;;;;;;;;;22.50;99.90;;;;;;5062745;28;19954;-79
2023/06/12 13:42:48;;;;;;;;;;;22.00;99.90;;;;;;5062579;28;20800;-80
2023/06/12 13:45:14;;;;;;;;;;;21.90;99.90;;;;;;5059543;28;19915;-82
2023/06/12 13:47:40;;;;;;;;;;;19.80;99.90;;;;;;5062536;28;19908;-81
2023/06/12 13:50:10;;;;;;;;;;;20.10;99.90;;;;;;5062514;28;19939;-80
2023/06/12 13:52:39;;;;;;;;;;;20.10;99.90;;;;;;5054176;28;19985;-80
2023/06/12 13:55:05;;;;;;;;;;;19.40;99.90;;;;;;5062737;28;20670;-80
2023/06/12 13:57:31;;;;;;;;;;;19.80;99.90;;;;;;5062797;28;19978;-80
2023/06/12 13:59:56;;;;;;;;;;;19.50;99.90;;;;;;5062662;28;19913;-79
2023/06/12 14:02:22;;;;;;;;;;;20.60;99.90;;;;;;5057307;28;20748;-79
2023/06/12 14:04:48;;;;;;;;;;;20.10;99.90;;;;;;5057686;28;20054;-79
2023/06/12 14:07:13;;;;;;;;;;;20.00;99.90;;;;;;5061072;28;20014;-80
2023/06/12 14:09:39;;;;;;;;;;;19.30;99.90;;;;;;5062593;28;19920;-80
2023/06/12 14:12:05;;;;;;;;;;;19.70;99.90;;;;;;5056360;28;19908;-80